Date,TemperatureHighF,TemperatureAvgF,TemperatureLowF,DewpointHighF,DewpointAvgF,DewpointLowF,HumidityHigh,HumidityAvg,HumidityLow,PressureMaxIn,PressureMinIn,WindSpeedMaxMPH,WindSpeedAvgMPH,GustSpeedMaxMPH,PrecipitationSumIn
2013-9-1,80.0,71.4,66.2,72.0,67.5,64.0,97,88,73,29.75,29.62,5,0,6,0.03
2013-9-2,74.9,68.4,58.6,70.3,62.0,52.2,96,81,61,29.82,29.61,11,2,11,0.00
2013-9-3,72.6,63.0,56.7,57.2,54.2,51.6,88,74,54,29.93,29.81,11,1,11,0.00
2013-9-4,79.2,67.5,56.6,63.9,58.8,53.4,92,75,52,29.99,29.91,12,2,12,0.00
2013-9-5,69.4,61.9,51.5,62.7,51.9,46.1,94,72,46,30.18,29.97,8,1,11,0.00
2013-9-6,68.0,52.2,45.6,51.4,45.7,40.9,97,82,42,30.21,30.17,7,0,7,0.00
2013-9-7,79.2,73.2,68.8,70.5,67.2,65.4,94,82,63,29.90,29.80,7,1,9,0.07
2013-9-8,72.3,67.2,55.5,67.1,58.5,49.8,93,75,51,29.99,29.83,11,2,11,0.00
2013-9-9,73.4,63.2,52.1,69.3,60.3,49.9,96,90,77,29.98,29.82,6,0,6,0.07
2013-9-10,92.0,81.0,68.2,73.9,70.0,64.7,97,72,41,29.91,29.80,14,3,14,0.00
2013-9-11,88.4,76.3,68.2,73.5,68.5,65.8,97,78,58,29.91,29.83,10,2,11,0.31
2013-9-12,76.1,67.0,55.1,67.3,60.9,50.1,98,83,49,29.86,29.73,16,1,16,0.32
2013-9-13,59.9,53.1,42.7,50.5,44.5,38.6,91,73,54,30.06,29.86,14,2,20,0.00
2013-9-14,66.5,52.7,40.4,47.6,42.2,34.6,96,72,35,30.13,30.02,7,1,8,0.00
2013-9-15,61.8,55.3,50.3,54.5,50.1,45.7,97,83,64,30.06,29.99,8,0,9,0.07
2013-9-16,60.7,54.7,45.3,53.9,48.9,41.3,97,82,58,30.31,30.05,12,2,12,0.00
2013-9-17,67.3,52.2,39.1,52.3,44.9,38.0,98,78,51,30.34,30.16,6,0,6,0.00
2013-9-18,74.5,59.8,46.3,57.5,51.9,43.8,98,78,47,30.16,29.96,10,1,10,0.00
2013-9-19,78.5,67.3,57.8,69.4,63.4,56.6,98,88,70,29.97,29.83,10,1,10,0.00
2013-9-20,79.6,70.8,66.5,71.7,68.0,65.6,98,91,71,29.83,29.63,12,2,12,0.24
2013-9-21,66.7,61.4,53.7,65.6,55.4,44.3,98,82,54,29.78,29.57,14,1,14,0.03
2013-9-22,56.8,51.5,45.4,45.5,42.6,40.0,91,72,59,30.02,29.78,9,1,12,0.00
2013-9-23,59.9,49.7,40.3,46.1,42.7,38.4,97,78,56,30.13,30.02,7,0,7,0.00
2013-9-24,66.8,53.1,42.2,50.8,46.5,41.3,99,81,54,30.09,29.93,5,0,5,0.00
2013-9-25,69.5,56.6,46.8,54.6,49.5,45.4,98,79,49,29.95,29.88,6,0,6,0.00
2013-9-26,74.2,59.8,48.0,55.2,49.7,46.1,99,73,42,30.07,29.93,8,1,8,0.00
2013-9-27,74.8,60.5,48.8,58.2,53.6,48.0,99,80,50,30.16,30.07,8,0,8,0.00
2013-9-28,76.2,63.4,52.4,60.8,56.1,51.8,99,80,47,30.12,29.93,10,1,10,0.00
2013-9-29,62.5,59.7,58.0,61.6,57.2,53.8,98,92,83,29.94,29.87,8,1,8,0.11
2013-9-30,69.7,61.0,55.9,57.8,55.5,50.1,99,84,50,29.94,29.84,11,1,12,0.01